createdAt,value
2024-02-20T00:02:01.590Z,3.36
2024-02-20T00:04:31.360Z,3.37
2024-02-20T00:07:01.089Z,3.38
2024-02-20T00:09:30.563Z,3.40
2024-02-20T00:12:01.383Z,3.41
2024-02-20T00:14:30.908Z,3.43
2024-02-20T00:17:02.034Z,3.42
2024-02-20T00:19:31.555Z,3.41
2024-02-20T00:22:01.050Z,3.42
2024-02-20T00:24:30.465Z,3.39
2024-02-20T00:27:00.030Z,3.33
2024-02-20T00:29:29.432Z,3.33
2024-02-20T00:31:58.954Z,3.34
2024-02-20T00:34:30.070Z,3.35
2024-02-20T00:36:59.929Z,3.38
2024-02-20T00:39:29.323Z,3.38
2024-02-20T00:41:59.295Z,3.34
2024-02-20T00:45:40.589Z,3.31
2024-02-20T00:48:11.813Z,3.29
2024-02-20T00:50:41.750Z,3.21
2024-02-20T00:53:11.429Z,3.16
2024-02-20T00:55:41.165Z,3.08
2024-02-20T00:58:11.120Z,3.08
2024-02-20T01:00:42.114Z,3.09
2024-02-20T01:03:12.042Z,3.15
2024-02-20T01:05:41.528Z,3.15
2024-02-20T01:08:11.060Z,3.17
2024-02-20T01:10:40.632Z,3.15
2024-02-20T01:13:10.260Z,3.14
2024-02-20T01:15:41.644Z,3.13
2024-02-20T01:18:11.332Z,3.10
2024-02-20T01:20:42.499Z,3.09
2024-02-20T01:23:13.712Z,3.07
2024-02-20T01:25:44.210Z,3.00
2024-02-20T01:28:14.194Z,3.03
2024-02-20T01:30:48.623Z,3.02
2024-02-20T01:33:18.194Z,3.05
2024-02-20T01:35:47.767Z,3.11
2024-02-20T01:38:17.460Z,3.13
2024-02-20T01:40:46.983Z,3.14
2024-02-20T01:43:16.818Z,3.18
2024-02-20T01:45:48.171Z,3.19
2024-02-20T01:48:18.424Z,3.17
2024-02-20T01:50:48.109Z,3.16
2024-02-20T01:53:18.372Z,3.11
2024-02-20T01:55:48.751Z,3.08
2024-02-20T01:58:18.399Z,3.04
2024-02-20T02:00:49.900Z,3.01
2024-02-20T02:03:19.473Z,2.98
2024-02-20T02:05:49.114Z,2.98
2024-02-20T02:08:18.834Z,3.01
2024-02-20T02:10:48.408Z,3.02
2024-02-20T02:13:18.790Z,3.05
2024-02-20T02:15:51.158Z,3.06
2024-02-20T02:18:20.804Z,3.09
2024-02-20T02:20:50.500Z,3.13
2024-02-20T02:23:20.047Z,3.15
2024-02-20T02:25:49.566Z,3.14
2024-02-20T02:28:20.557Z,3.11
2024-02-20T02:30:50.186Z,3.08
2024-02-20T02:33:19.671Z,3.00
2024-02-20T02:35:49.631Z,2.95
2024-02-20T02:38:19.140Z,2.95
2024-02-20T02:40:48.812Z,2.96
2024-02-20T02:43:19.880Z,3.00
2024-02-20T02:45:49.502Z,3.05
2024-02-20T02:48:19.132Z,3.07
2024-02-20T02:50:48.823Z,3.10
2024-02-20T02:53:18.362Z,3.13
2024-02-20T02:55:47.906Z,3.16
2024-02-20T02:58:19.048Z,3.18
2024-02-20T03:00:49.558Z,3.19
2024-02-20T03:03:19.686Z,3.18
2024-02-20T03:05:49.743Z,3.14
2024-02-20T03:08:19.197Z,3.11
2024-02-20T03:10:50.121Z,3.10
2024-02-20T03:13:22.083Z,3.07
2024-02-20T03:15:51.851Z,3.09
2024-02-20T03:18:22.647Z,3.10
2024-02-20T03:20:52.806Z,3.08
2024-02-20T03:23:22.252Z,3.07
2024-02-20T03:25:51.777Z,3.05
2024-02-20T03:28:23.193Z,3.06
2024-02-20T03:30:53.300Z,3.07
2024-02-20T03:33:22.954Z,3.05
2024-02-20T03:35:53.445Z,3.05
2024-02-20T03:38:23.649Z,3.04
2024-02-20T03:40:53.150Z,3.06
2024-02-20T03:46:40.592Z,3.08
2024-02-20T03:49:11.055Z,3.10
2024-02-20T03:51:40.690Z,3.12
2024-02-20T03:54:10.306Z,3.15
2024-02-20T03:56:39.894Z,3.16
2024-02-20T03:59:10.113Z,3.18
2024-02-20T04:01:41.715Z,3.15
2024-02-20T04:04:11.728Z,3.15
2024-02-20T04:06:41.662Z,3.17
2024-02-20T04:09:11.173Z,3.19
2024-02-20T04:11:40.669Z,3.18
2024-02-20T04:14:10.233Z,3.17
2024-02-20T04:16:41.261Z,3.16
2024-02-20T04:19:11.008Z,3.15
2024-02-20T04:21:40.712Z,3.15
2024-02-20T04:24:10.961Z,3.15
2024-02-20T04:26:40.615Z,3.15
2024-02-20T04:29:10.212Z,3.16
2024-02-20T04:31:41.132Z,3.15
2024-02-20T04:34:10.891Z,3.17
2024-02-20T04:36:40.551Z,3.17
2024-02-20T04:39:11.399Z,3.18
2024-02-20T04:41:43.353Z,3.18
2024-02-20T04:44:13.651Z,3.18
2024-02-20T04:46:44.500Z,3.12
2024-02-20T04:49:14.090Z,3.05
2024-02-20T04:51:43.605Z,3.06
2024-02-20T04:54:13.270Z,3.05
2024-02-20T04:56:42.751Z,3.00
2024-02-20T04:59:12.291Z,2.98
2024-02-20T05:01:43.724Z,3.00
2024-02-20T05:04:13.634Z,3.03
2024-02-20T05:06:43.239Z,3.05
2024-02-20T05:09:12.953Z,3.04
2024-02-20T05:11:42.967Z,3.04
2024-02-20T05:14:12.482Z,3.05
2024-02-20T05:16:45.098Z,3.06
2024-02-20T05:19:14.585Z,3.06
2024-02-20T05:21:44.650Z,3.06
2024-02-20T05:24:14.133Z,3.05
2024-02-20T05:26:43.539Z,3.08
2024-02-20T05:29:13.209Z,3.11
2024-02-20T05:31:44.213Z,3.14
2024-02-20T05:34:13.881Z,3.10
2024-02-20T05:36:43.439Z,3.12
2024-02-20T05:39:12.880Z,3.09
2024-02-20T05:41:42.431Z,3.06
2024-02-20T05:44:11.927Z,3.06
2024-02-20T05:46:43.041Z,3.03
2024-02-20T05:49:12.772Z,3.00
2024-02-20T05:51:42.580Z,2.99
2024-02-20T05:54:12.199Z,2.99
2024-02-20T05:56:42.719Z,3.01
2024-02-20T05:59:12.361Z,3.04
2024-02-20T06:01:43.527Z,3.01
2024-02-20T06:04:13.165Z,3.01
2024-02-20T06:06:43.756Z,3.00
2024-02-20T06:09:14.115Z,3.01
2024-02-20T06:11:43.735Z,3.04
2024-02-20T06:14:13.332Z,3.03
2024-02-20T06:16:44.746Z,3.07
2024-02-20T06:19:14.449Z,3.13
2024-02-20T06:21:44.713Z,3.12
2024-02-20T06:24:14.325Z,3.13
2024-02-20T06:26:43.790Z,3.13
2024-02-20T06:29:13.504Z,3.13
2024-02-20T06:31:44.700Z,3.13
2024-02-20T06:34:14.617Z,3.14
2024-02-20T06:36:44.488Z,3.14
2024-02-20T06:39:14.168Z,3.10
2024-02-20T06:41:43.722Z,3.12
2024-02-20T06:46:43.130Z,3.19
2024-02-20T06:49:12.983Z,3.23
2024-02-20T06:51:42.615Z,3.28
2024-02-20T06:54:12.222Z,3.32
2024-02-20T06:56:41.767Z,3.38
2024-02-20T06:59:11.361Z,3.42
2024-02-20T07:01:42.435Z,3.37
2024-02-20T07:04:15.921Z,3.28
2024-02-20T07:06:45.828Z,3.30
2024-02-20T07:09:16.710Z,3.38
2024-02-20T07:11:49.008Z,3.45
2024-02-20T07:14:18.654Z,3.47
2024-02-20T07:16:50.539Z,3.52
2024-02-20T07:19:23.395Z,3.50
2024-02-20T07:21:53.015Z,3.39
2024-02-20T07:24:22.899Z,3.31
2024-02-20T07:26:52.320Z,3.33
2024-02-20T07:29:21.902Z,3.37
2024-02-20T07:31:52.876Z,3.39
2024-02-20T07:34:22.588Z,3.44
2024-02-20T07:36:52.288Z,3.47
2024-02-20T07:39:21.744Z,3.50
2024-02-20T07:41:51.270Z,3.55
2024-02-20T07:44:20.835Z,3.58
2024-02-20T07:46:52.000Z,3.59
2024-02-20T07:49:21.564Z,3.61
2024-02-20T07:51:51.194Z,3.60
2024-02-20T07:54:20.668Z,3.56
2024-02-20T07:56:51.243Z,3.58
2024-02-20T07:59:21.021Z,3.53
2024-02-20T08:01:55.581Z,3.59
2024-02-20T08:04:25.399Z,3.61
2024-02-20T08:06:55.247Z,3.62
2024-02-20T08:09:24.832Z,3.62
2024-02-20T08:11:54.334Z,3.58
2024-02-20T08:14:23.930Z,3.60
2024-02-20T08:16:54.870Z,3.60
2024-02-20T08:19:24.894Z,3.58
2024-02-20T08:21:54.917Z,3.60
2024-02-20T08:24:24.348Z,3.66
2024-02-20T08:26:56.367Z,3.69
2024-02-20T08:29:29.399Z,3.74
2024-02-20T08:32:00.458Z,3.78
2024-02-20T08:34:30.387Z,3.84
2024-02-20T08:37:00.079Z,3.86
2024-02-20T08:39:30.009Z,3.90
2024-02-20T08:41:59.557Z,3.99
2024-02-20T08:44:29.052Z,3.99
2024-02-20T08:47:00.315Z,4.03
2024-02-20T08:49:32.241Z,4.04
2024-02-20T08:52:02.657Z,4.01
2024-02-20T08:54:32.218Z,3.99
2024-02-20T08:57:01.696Z,4.02
2024-02-20T08:59:31.258Z,4.01
2024-02-20T09:02:02.379Z,3.99
2024-02-20T09:04:32.077Z,4.01
2024-02-20T09:07:02.097Z,4.01
2024-02-20T09:09:31.825Z,3.99
2024-02-20T09:12:03.167Z,4.02
2024-02-20T09:14:33.150Z,4.04
2024-02-20T09:17:04.109Z,3.93
2024-02-20T09:19:33.924Z,3.93
2024-02-20T09:22:05.630Z,3.93
2024-02-20T09:24:35.195Z,3.92
2024-02-20T09:27:05.862Z,3.95
2024-02-20T09:29:35.394Z,3.97
2024-02-20T09:32:06.905Z,3.98
2024-02-20T09:34:36.730Z,4.01
2024-02-20T09:37:06.466Z,4.03
2024-02-20T09:39:36.045Z,4.05
2024-02-20T09:42:10.493Z,4.03
2024-02-20T09:46:45.941Z,4.03
2024-02-20T09:49:15.794Z,3.99
2024-02-20T09:51:48.236Z,3.98
2024-02-20T09:54:18.454Z,3.98
2024-02-20T09:56:50.940Z,3.98
2024-02-20T09:59:20.395Z,3.95
2024-02-20T10:01:52.957Z,3.96
2024-02-20T10:04:24.275Z,3.94
2024-02-20T10:06:54.015Z,3.91
2024-02-20T10:09:24.970Z,3.90
2024-02-20T10:11:54.834Z,3.92
2024-02-20T10:14:30.052Z,3.92
2024-02-20T10:17:04.728Z,3.93
2024-02-20T10:19:34.349Z,3.97
2024-02-20T10:22:04.016Z,3.94
2024-02-20T10:24:38.534Z,3.98
2024-02-20T10:27:09.993Z,3.98
2024-02-20T10:29:39.615Z,4.01
2024-02-20T10:32:10.670Z,4.03
2024-02-20T10:34:40.350Z,4.02
2024-02-20T10:37:10.206Z,4.06
2024-02-20T10:39:39.850Z,4.07
2024-02-20T10:42:11.986Z,4.11
2024-02-20T10:44:43.329Z,4.13
2024-02-20T10:47:17.603Z,4.15
2024-02-20T10:49:47.920Z,4.22
2024-02-20T10:52:17.716Z,4.23
2024-02-20T10:54:51.097Z,4.27
2024-02-20T10:57:23.360Z,4.25
2024-02-20T10:59:54.327Z,4.25
2024-02-20T11:02:25.335Z,4.26
2024-02-20T11:04:55.640Z,4.25
2024-02-20T11:07:25.561Z,4.26
2024-02-20T11:10:10.951Z,4.24
2024-02-20T11:12:40.951Z,4.24
2024-02-20T11:15:13.339Z,4.26
2024-02-20T11:17:45.141Z,4.26
2024-02-20T11:20:19.671Z,4.28
2024-02-20T11:22:51.603Z,4.30
2024-02-20T11:25:31.821Z,4.32
2024-02-20T11:28:07.872Z,4.39
2024-02-20T11:30:39.416Z,4.30
2024-02-20T11:33:18.079Z,4.43
2024-02-20T11:35:49.571Z,4.56
2024-02-20T11:38:24.142Z,4.68
2024-02-20T11:40:53.756Z,4.80
2024-02-20T11:43:24.229Z,4.90
2024-02-20T11:46:02.268Z,5.02
2024-02-20T11:48:34.930Z,5.14
2024-02-20T11:51:04.735Z,5.22
2024-02-20T11:53:34.322Z,5.19
2024-02-20T11:56:05.053Z,5.18
2024-02-20T11:58:34.603Z,5.20
2024-02-20T12:01:07.722Z,5.33
2024-02-20T12:03:44.136Z,5.38
2024-02-20T12:06:13.782Z,5.42
2024-02-20T12:08:46.743Z,5.43
2024-02-20T12:11:21.864Z,5.39
2024-02-20T12:13:53.527Z,5.47
2024-02-20T12:16:26.624Z,5.58
2024-02-20T12:19:03.762Z,5.68
2024-02-20T12:21:42.738Z,5.72
2024-02-20T12:24:12.524Z,5.63
2024-02-20T12:26:42.279Z,5.58
2024-02-20T12:29:11.780Z,5.58
2024-02-20T12:31:41.826Z,5.64
2024-02-20T12:34:13.289Z,5.65
2024-02-20T12:36:43.013Z,5.61
2024-02-20T12:39:12.515Z,5.57
2024-02-20T12:41:42.085Z,5.58
2024-02-20T12:46:41.035Z,5.36
2024-02-20T12:49:11.168Z,5.36
2024-02-20T12:51:41.011Z,5.40
2024-02-20T12:54:10.541Z,5.41
2024-02-20T12:56:40.208Z,5.40
2024-02-20T12:59:09.704Z,5.43
2024-02-20T13:01:41.213Z,5.46
2024-02-20T13:04:11.352Z,5.43
2024-02-20T13:06:41.020Z,5.41
2024-02-20T13:09:11.874Z,5.37
2024-02-20T13:11:41.620Z,5.33
2024-02-20T13:14:11.510Z,5.31
2024-02-20T13:16:46.709Z,5.34
2024-02-20T13:19:17.714Z,5.37
2024-02-20T13:21:47.587Z,5.41
2024-02-20T13:24:16.975Z,5.43
2024-02-20T13:26:46.583Z,5.43
2024-02-20T13:29:16.112Z,5.40
2024-02-20T13:31:47.225Z,5.43
2024-02-20T13:34:17.033Z,5.44
2024-02-20T13:36:46.633Z,5.46
2024-02-20T13:39:16.315Z,5.46
2024-02-20T13:41:45.911Z,5.45
2024-02-20T13:44:15.339Z,5.47
2024-02-20T13:46:46.487Z,5.47
2024-02-20T13:49:25.756Z,5.44
2024-02-20T13:51:55.717Z,5.45
2024-02-20T13:54:28.943Z,5.42
2024-02-20T13:56:58.722Z,5.39
2024-02-20T13:59:28.304Z,5.36
2024-02-20T14:01:59.692Z,5.33
2024-02-20T14:04:29.213Z,5.32
2024-02-20T14:06:58.892Z,5.34
2024-02-20T14:09:30.147Z,5.32
2024-02-20T14:11:59.704Z,5.30
2024-02-20T14:14:29.105Z,5.28
2024-02-20T14:17:00.257Z,5.28
2024-02-20T14:19:29.789Z,5.23
2024-02-20T14:21:59.378Z,5.18
2024-02-20T14:24:28.875Z,5.18
2024-02-20T14:26:58.669Z,5.19
2024-02-20T14:29:28.321Z,5.18
2024-02-20T14:31:59.170Z,5.16
2024-02-20T14:34:29.118Z,5.14
2024-02-20T14:36:58.792Z,5.08
2024-02-20T14:39:28.278Z,5.03
2024-02-20T14:41:57.730Z,4.98
2024-02-20T14:44:27.292Z,4.98
2024-02-20T14:46:59.656Z,4.97
2024-02-20T14:49:33.392Z,4.91
2024-02-20T14:52:03.003Z,4.87
2024-02-20T14:54:33.970Z,4.84
2024-02-20T14:57:03.411Z,4.78
2024-02-20T14:59:32.939Z,4.78
2024-02-20T15:02:03.844Z,4.77
2024-02-20T15:04:33.859Z,4.75
2024-02-20T15:07:05.176Z,4.79
2024-02-20T15:09:34.797Z,4.81
2024-02-20T15:12:04.695Z,4.81
2024-02-20T15:14:35.255Z,4.75
2024-02-20T15:17:08.676Z,4.75
2024-02-20T15:19:39.915Z,4.73
2024-02-20T15:22:09.595Z,4.73
2024-02-20T15:24:40.468Z,4.71
2024-02-20T15:27:09.970Z,4.71
2024-02-20T15:29:41.708Z,4.73
2024-02-20T15:32:12.596Z,4.71
2024-02-20T15:34:42.295Z,4.70
2024-02-20T15:37:12.229Z,4.68
2024-02-20T15:39:41.737Z,4.70
2024-02-20T15:42:11.926Z,4.68
2024-02-20T15:46:40.470Z,4.65
2024-02-20T15:49:10.254Z,4.59
2024-02-20T15:51:44.460Z,4.48
2024-02-20T15:54:14.044Z,4.43
2024-02-20T15:56:43.559Z,4.33
2024-02-20T15:59:13.771Z,4.29
2024-02-20T16:01:44.804Z,4.14
2024-02-20T16:04:14.938Z,4.07
2024-02-20T16:06:44.619Z,3.97
2024-02-20T16:09:16.000Z,3.90
2024-02-20T16:11:46.356Z,3.86
2024-02-20T16:14:15.848Z,3.81
2024-02-20T16:16:47.039Z,3.77
2024-02-20T16:19:16.788Z,3.78
2024-02-20T16:21:46.919Z,3.77
2024-02-20T16:24:17.288Z,3.78
2024-02-20T16:26:49.276Z,3.80
2024-02-20T16:29:18.913Z,3.73
2024-02-20T16:31:53.348Z,3.71
2024-02-20T16:34:23.116Z,3.72
2024-02-20T16:37:00.778Z,3.73
2024-02-20T16:39:30.224Z,3.70
2024-02-20T16:41:59.636Z,3.67
2024-02-20T16:44:29.147Z,3.67
2024-02-20T16:47:01.088Z,3.64
2024-02-20T16:49:33.126Z,3.61
2024-02-20T16:52:02.634Z,3.62
2024-02-20T16:54:33.580Z,3.61
2024-02-20T16:57:05.786Z,3.61
2024-02-20T16:59:36.804Z,3.61
2024-02-20T17:02:07.994Z,3.61
2024-02-20T17:04:39.100Z,3.63
2024-02-20T17:07:08.797Z,3.66
2024-02-20T17:09:38.395Z,3.62
2024-02-20T17:12:08.518Z,3.57
2024-02-20T17:14:38.067Z,3.48
2024-02-20T17:17:09.004Z,3.44
2024-02-20T17:19:39.392Z,3.45
2024-02-20T17:22:09.300Z,3.51
2024-02-20T17:24:38.808Z,3.47
2024-02-20T17:27:08.376Z,3.43
2024-02-20T17:29:38.667Z,3.40
2024-02-20T17:32:09.818Z,3.33
2024-02-20T17:34:39.381Z,3.25
2024-02-20T17:37:10.365Z,3.21
2024-02-20T17:39:39.980Z,3.23
2024-02-20T17:42:09.733Z,3.12
2024-02-20T17:44:42.022Z,3.01
2024-02-20T17:47:15.268Z,2.88
2024-02-20T17:49:44.793Z,2.85
2024-02-20T17:52:15.217Z,2.88
2024-02-20T17:54:44.669Z,2.94
2024-02-20T17:57:17.937Z,2.93
2024-02-20T17:59:47.443Z,2.85
2024-02-20T18:02:18.400Z,2.84
2024-02-20T18:04:48.105Z,2.90
2024-02-20T18:07:17.780Z,2.95
2024-02-20T18:09:48.507Z,2.98
2024-02-20T18:12:18.014Z,2.97
2024-02-20T18:14:49.336Z,2.93
2024-02-20T18:17:20.215Z,2.92
2024-02-20T18:19:49.712Z,2.92
2024-02-20T18:22:19.347Z,2.97
2024-02-20T18:24:48.947Z,2.92
2024-02-20T18:27:18.380Z,2.86
2024-02-20T18:29:47.957Z,2.82
2024-02-20T18:32:18.929Z,2.82
2024-02-20T18:34:48.600Z,2.88
2024-02-20T18:37:18.242Z,2.92
2024-02-20T18:39:50.255Z,2.88
2024-02-20T18:42:19.705Z,2.83
2024-02-20T18:46:45.560Z,2.71
2024-02-20T18:49:15.426Z,2.73
2024-02-20T18:51:45.042Z,2.76
2024-02-20T18:54:14.650Z,2.75
2024-02-20T18:56:44.253Z,2.63
2024-02-20T18:59:13.761Z,2.60
2024-02-20T19:01:44.791Z,2.61
2024-02-20T19:04:14.459Z,2.66
2024-02-20T19:06:45.477Z,2.66
2024-02-20T19:09:15.193Z,2.65
2024-02-20T19:11:46.452Z,2.64
2024-02-20T19:14:16.766Z,2.63
2024-02-20T19:16:48.158Z,2.51
2024-02-20T19:19:17.858Z,2.43
2024-02-20T19:21:47.393Z,2.43
2024-02-20T19:24:17.055Z,2.46
2024-02-20T19:26:46.499Z,2.50
2024-02-20T19:29:15.997Z,2.51
2024-02-20T19:31:47.002Z,2.55
2024-02-20T19:34:16.800Z,2.50
2024-02-20T19:36:46.454Z,2.50
2024-02-20T19:39:16.134Z,2.50
2024-02-20T19:41:45.631Z,2.46
2024-02-20T19:44:15.472Z,2.41
2024-02-20T19:46:45.463Z,2.44
2024-02-20T19:49:16.927Z,2.48
2024-02-20T19:51:46.403Z,2.45
2024-02-20T19:54:16.521Z,2.46
2024-02-20T19:56:46.003Z,2.50
2024-02-20T19:59:15.692Z,2.50
2024-02-20T20:01:46.275Z,2.47
2024-02-20T20:04:17.343Z,2.46
2024-02-20T20:06:47.639Z,2.36
2024-02-20T20:09:18.679Z,2.38
2024-02-20T20:11:48.181Z,2.40
2024-02-20T20:14:18.268Z,2.43
2024-02-20T20:16:47.886Z,2.41
2024-02-20T20:19:19.031Z,2.29
2024-02-20T20:21:49.452Z,2.23
2024-02-20T20:24:19.175Z,2.21
2024-02-20T20:26:50.801Z,2.28
2024-02-20T20:29:20.778Z,2.21
2024-02-20T20:31:52.046Z,2.14
2024-02-20T20:34:23.294Z,2.19
2024-02-20T20:36:55.832Z,2.23
2024-02-20T20:39:26.860Z,2.20
2024-02-20T20:41:56.354Z,2.19
2024-02-20T20:44:26.509Z,2.22
2024-02-20T20:46:56.379Z,2.24
2024-02-20T20:49:27.518Z,2.27
2024-02-20T20:51:57.081Z,2.30
2024-02-20T20:54:26.632Z,2.35
2024-02-20T20:56:56.535Z,2.33
2024-02-20T20:59:28.116Z,2.21
2024-02-20T21:01:58.081Z,2.16
2024-02-20T21:04:29.076Z,2.15
2024-02-20T21:06:58.689Z,2.18
2024-02-20T21:09:28.196Z,2.14
2024-02-20T21:11:57.659Z,2.14
2024-02-20T21:14:27.196Z,2.16
2024-02-20T21:16:56.773Z,2.15
2024-02-20T21:19:27.877Z,2.16
2024-02-20T21:21:57.397Z,2.20
2024-02-20T21:24:28.104Z,2.19
2024-02-20T21:26:58.214Z,2.14
2024-02-20T21:29:27.677Z,2.08
2024-02-20T21:31:57.297Z,2.11
2024-02-20T21:34:28.499Z,2.11
2024-02-20T21:36:58.018Z,2.13
2024-02-20T21:39:27.473Z,2.20
2024-02-20T21:41:56.906Z,2.21
2024-02-20T21:46:40.103Z,2.18
2024-02-20T21:49:10.503Z,2.18
2024-02-20T21:51:40.228Z,2.21
2024-02-20T21:54:10.070Z,2.26
2024-02-20T21:56:39.673Z,2.25
2024-02-20T21:59:09.110Z,2.11
2024-02-20T22:01:40.068Z,2.02
2024-02-20T22:04:09.652Z,2.03
2024-02-20T22:06:39.597Z,2.06
2024-02-20T22:09:10.051Z,2.12
2024-02-20T22:11:39.605Z,2.17
2024-02-20T22:14:09.077Z,2.19
2024-02-20T22:16:40.491Z,2.18
2024-02-20T22:19:11.085Z,2.23
2024-02-20T22:21:40.732Z,2.28
2024-02-20T22:24:10.302Z,2.28
2024-02-20T22:26:39.765Z,2.25
2024-02-20T22:29:09.384Z,2.20
2024-02-20T22:31:40.249Z,2.20
2024-02-20T22:34:10.044Z,2.24
2024-02-20T22:36:39.761Z,2.28
2024-02-20T22:39:09.416Z,2.20
2024-02-20T22:41:38.929Z,2.18
2024-02-20T22:44:09.858Z,2.16
2024-02-20T22:46:40.710Z,2.18
2024-02-20T22:49:10.470Z,2.14
2024-02-20T22:51:40.104Z,2.00
2024-02-20T22:54:09.563Z,1.93
2024-02-20T22:56:39.030Z,1.92
2024-02-20T22:59:08.564Z,1.87
2024-02-20T23:01:39.630Z,1.84
2024-02-20T23:04:11.843Z,1.80
2024-02-20T23:06:43.416Z,1.70
2024-02-20T23:09:13.158Z,1.68
2024-02-20T23:11:43.369Z,1.69
2024-02-20T23:14:12.974Z,1.66
2024-02-20T23:16:45.201Z,1.63
2024-02-20T23:19:14.929Z,1.55
2024-02-20T23:21:44.537Z,1.52
2024-02-20T23:24:14.098Z,1.47
2024-02-20T23:26:43.673Z,1.44
2024-02-20T23:29:13.321Z,1.32
2024-02-20T23:31:44.369Z,1.26
2024-02-20T23:34:14.243Z,1.22
2024-02-20T23:36:44.389Z,1.27
2024-02-20T23:39:13.872Z,1.23
2024-02-20T23:41:43.550Z,1.12
2024-02-20T23:44:13.986Z,0.91
2024-02-20T23:46:44.998Z,0.83
2024-02-20T23:49:14.921Z,0.70
2024-02-20T23:51:44.574Z,0.65
2024-02-20T23:54:14.380Z,0.67
2024-02-20T23:56:43.912Z,0.71
2024-02-20T23:59:13.429Z,0.74
